Wednesday, July 1, 2015, 7:07 PM EDT

KPTW, Pottstown Limerick Airport

Location: Royersford, PA, United States Lat: 40.233
Local Time: 7:07 PM EDT (23:07 GMT) Lon: -75.55
Time Zone: US/Eastern Elev: 291 ft

Show me the last for .
Show Decoded

2015-07-01 17:54 METAR KPTW 012154Z AUTO 27008G15KT 10SM CLR 26/16 A2983 RMK AO2 SLP096 T02610156
                 =
2015-07-01 15:54 METAR KPTW 011954Z AUTO 24009KT 10SM FEW049 27/16 A2982 RMK AO2 SLP094 T02720156
                 =
2015-07-01 14:54 METAR KPTW 011854Z AUTO 25007KT 220V280 10SM BKN043 BKN060 26/17 A2983 RMK AO2
                 SLP095 T02610172 =
2015-07-01 13:54 METAR KPTW 011754Z AUTO 30009KT 10SM FEW035 26/18 A2983 RMK AO2 SLP098 T02610178
                 10261 20194 58000 =
2015-07-01 12:54 METAR KPTW 011654Z AUTO 24008G15KT 10SM SCT035 BKN042 26/17 A2985 RMK AO2 SLP102
                 T02560172 =
2015-07-01 11:54 METAR KPTW 011554Z AUTO 26005KT 10SM SCT031 25/18 A2984 RMK AO2 SLP100 T02500178
                 =
2015-07-01 10:54 METAR KPTW 011454Z AUTO 25004KT 10SM CLR 23/17 A2984 RMK AO2 SLP098 T02330172
                 50002 =
2015-07-01 09:54 METAR KPTW 011354Z AUTO 26005KT 10SM CLR 23/18 A2984 RMK AO2 SLP099 T02280183 =
2015-07-01 07:54 METAR KPTW 011154Z AUTO 00000KT 8SM CLR 19/19 A2983 RMK AO2 SLP096 60053 70069
                 T01940189 10217 20189 51019 =
2015-07-01 06:54 METAR KPTW 011054Z AUTO VRB03KT 8SM FEW011 19/19 A2982 RMK AO2 SLP092 T01940189
                 =
2015-07-01 05:54 METAR KPTW 010954Z AUTO 23003KT 10SM FEW032 SCT120 19/18 A2980 RMK AO2 RAE14
                 SLP086 P0001 T01890183 =
2015-07-01 04:54 METAR KPTW 010854Z AUTO 36003KT 7SM -RA OVC110 19/18 A2977 RMK AO2 PRESFR SLP077
                 P0006 60052 T01890183 58015 =
2015-07-01 03:54 METAR KPTW 010754Z AUTO 23005KT 6SM RA BR FEW070 BKN085 OVC110 19/18 A2981 RMK
                 AO2 LTG DSNT NW-NE TSB04E19 SLP091 P0018 T01890183 =
2015-07-01 03:41 METAR KPTW 010741Z AUTO 23005KT 5SM RA BR FEW023 BKN085 OVC110 19/18 A2983 RMK
                 AO2 LTG DSNT N AND E TSB04E19 PRESFR P0015 T01890183 =
2015-07-01 03:25 METAR KPTW 010725Z AUTO 21010G16KT 4SM VCTS +RA BR FEW022 BKN065 OVC090 19/18
                 A2986 RMK AO2 LTG DSNT ALQDS TSB04E19 P0009 T01890183 =
2015-07-01 03:10 METAR KPTW 010710Z AUTO 22006KT 5SM TSRA BR FEW050 BKN070 OVC090 19/18 A2987 RMK
                 AO2 LTG DSNT ALQDS TSB04 P0004 T01890183 =
2015-07-01 02:54 METAR KPTW 010654Z AUTO 20006KT 4SM VCTS RA BR SCT050 BKN070 OVC085 19/18 A2985
                 RMK AO2 LTG DSNT ALQDS RAB03 TSB00E48 SLP102 P0028 T01890183 =
2015-06-30 23:54 METAR KPTW 010354Z AUTO 00000KT 10SM CLR 22/21 A2983 RMK AO2 SLP096 T02170211 =
2015-06-30 22:54 METAR KPTW 010254Z AUTO 00000KT 10SM CLR 22/21 A2984 RMK AO2 LTG DSNT SE SLP100
                 T02170206 58002 =
2015-06-30 20:54 METAR KPTW 010054Z AUTO 00000KT 10SM FEW037 SCT120 23/20 A2985 RMK AO2 SLP102
                 T02330200 =
2015-06-30 19:54 METAR KPTW 302354Z AUTO VRB04KT 10SM FEW021 SCT039 24/20 A2985 RMK AO2 LTG DSNT
                 SE AND S AND NW SLP102 60016 T02390200 10267 20228 53000 =

Support USWX by starting your Amazon purchase here.